Time;durP1;ratioP1;P1;durP2;ratioP2;P2;SDS_P1;SDS_P2;PMS_P1;PMS_P2;Temp;Humidity;BMP_temperature;BMP_pressure;BME280_temperature;BME280_humidity;BME280_pressure;Samples;Min_cycle;Max_cycle;Signal;HPM_P1;HPM_P2
2023/05/10 00:02:01;;;;;;;15.93;8.07;;;13.80;99.90;;;;;;5073255;28;20295;-79
2023/05/10 00:04:28;;;;;;;17.90;8.80;;;13.80;99.90;;;;;;5074502;28;20200;-79
2023/05/10 00:06:55;;;;;;;18.67;9.13;;;13.80;99.90;;;;;;5073474;28;20215;-79
2023/05/10 00:09:21;;;;;;;20.37;9.03;;;13.80;99.90;;;;;;5075725;28;20228;-79
2023/05/10 00:11:48;;;;;;;20.70;9.27;;;13.80;99.90;;;;;;5081023;28;20230;-79
2023/05/10 00:14:15;;;;;;;19.07;8.87;;;13.80;99.90;;;;;;5078662;28;20378;-79
2023/05/10 00:16:42;;;;;;;19.57;9.10;;;13.70;99.90;;;;;;5083675;28;20210;-79
2023/05/10 00:19:08;;;;;;;22.77;8.90;;;13.70;99.90;;;;;;5081274;28;20212;-80
2023/05/10 00:21:36;;;;;;;19.40;9.60;;;13.70;99.90;;;;;;5099386;28;20283;-80
2023/05/10 00:24:03;;;;;;;21.47;10.10;;;13.70;99.90;;;;;;5117175;27;20221;-79
2023/05/10 00:26:29;;;;;;;22.10;9.63;;;13.70;99.90;;;;;;5097807;28;20214;-79
2023/05/10 00:28:58;;;;;;;25.73;10.43;;;13.70;99.90;;;;;;5098506;28;20199;-78
2023/05/10 00:31:25;;;;;;;28.57;11.50;;;13.70;99.90;;;;;;5099102;28;20215;-78
2023/05/10 00:33:52;;;;;;;21.53;9.63;;;13.70;99.90;;;;;;5095413;28;20203;-78
2023/05/10 00:36:19;;;;;;;21.47;10.20;;;13.70;99.90;;;;;;5101467;28;20294;-79
2023/05/10 00:38:45;;;;;;;26.87;11.60;;;13.70;99.90;;;;;;5101750;28;20203;-78
2023/05/10 00:41:12;;;;;;;27.30;11.03;;;13.70;99.90;;;;;;5103833;28;20286;-77
2023/05/10 00:43:39;;;;;;;26.77;11.00;;;13.70;99.90;;;;;;5099470;28;20212;-79
2023/05/10 00:46:07;;;;;;;22.57;10.93;;;13.70;99.90;;;;;;5100195;28;20261;-77
2023/05/10 00:48:34;;;;;;;30.70;11.60;;;13.70;99.90;;;;;;5100670;28;20279;-78
2023/05/10 00:51:03;;;;;;;30.60;12.00;;;13.60;99.90;;;;;;5102220;28;20219;-78
2023/05/10 00:53:32;;;;;;;26.20;11.83;;;13.60;99.90;;;;;;5098965;28;20286;-79
2023/05/10 00:55:59;;;;;;;30.33;12.13;;;13.60;99.90;;;;;;5101589;28;20222;-77
2023/05/10 00:58:30;;;;;;;36.07;13.80;;;13.60;99.90;;;;;;5101849;28;20235;-78
2023/05/10 01:00:58;;;;;;;35.67;13.00;;;13.50;99.90;;;;;;5101588;28;20219;-79
2023/05/10 01:03:25;;;;;;;38.60;14.43;;;13.50;99.90;;;;;;5098944;28;20218;-78
2023/05/10 01:05:52;;;;;;;40.57;14.57;;;13.50;99.90;;;;;;5105731;28;20249;-78
2023/05/10 01:08:19;;;;;;;40.53;13.57;;;13.50;99.90;;;;;;5113628;27;20258;-78
2023/05/10 01:10:48;;;;;;;41.40;14.53;;;13.60;99.90;;;;;;5122305;27;20195;-79
2023/05/10 01:13:32;;;;;;;40.90;15.10;;;13.50;99.90;;;;;;5118894;27;20252;-79
2023/05/10 01:16:02;;;;;;;48.20;14.83;;;13.60;99.90;;;;;;5116307;27;20246;-78
2023/05/10 01:18:31;;;;;;;43.80;15.27;;;13.60;99.90;;;;;;5117516;27;20743;-77
2023/05/10 01:21:40;;;;;;;44.80;15.67;;;13.60;99.90;;;;;;5118744;27;20235;-77
2023/05/10 01:24:51;;;;;;;41.43;14.50;;;13.70;99.90;;;;;;5095502;27;20289;-77
2023/05/10 01:27:50;;;;;;;47.70;17.43;;;13.70;99.90;;;;;;5123221;27;20193;-79
2023/05/10 01:30:42;;;;;;;52.40;16.20;;;13.60;99.90;;;;;;5114479;27;20238;-77
2023/05/10 01:33:18;;;;;;;56.13;17.47;;;13.60;99.90;;;;;;5117934;27;20222;-78
2023/05/10 01:36:03;;;;;;;51.40;18.00;;;13.60;99.90;;;;;;5120189;27;20287;-79
2023/05/10 01:38:38;;;;;;;54.07;17.80;;;13.60;99.90;;;;;;5129874;27;20302;-79
2023/05/10 01:41:18;;;;;;;59.07;18.77;;;13.60;99.90;;;;;;5118124;27;20202;-78
2023/05/10 01:44:16;;;;;;;59.37;18.57;;;13.40;99.90;;;;;;5118326;27;20619;-78
2023/05/10 01:46:43;;;;;;;60.97;18.50;;;13.50;99.90;;;;;;5114233;27;20235;-79
2023/05/10 01:49:30;;;;;;;63.27;19.10;;;13.50;99.90;;;;;;5118393;27;20226;-79
2023/05/10 01:52:06;;;;;;;68.63;20.40;;;13.50;99.90;;;;;;5107881;27;20254;-78
2023/05/10 01:54:33;;;;;;;63.93;19.13;;;13.50;99.90;;;;;;5118522;27;20217;-78
2023/05/10 01:57:05;;;;;;;66.57;20.27;;;13.50;99.90;;;;;;5096865;28;20199;-78
2023/05/10 01:59:36;;;;;;;69.73;20.07;;;13.50;99.90;;;;;;5119998;27;20257;-78
2023/05/10 02:02:05;;;;;;;71.13;19.50;;;13.60;99.90;;;;;;5113701;27;20238;-78
2023/05/10 02:04:35;;;;;;;64.07;20.03;;;13.60;99.90;;;;;;5101415;27;20202;-79
2023/05/10 02:07:02;;;;;;;76.17;21.17;;;13.60;99.90;;;;;;5114987;27;20573;-79
2023/05/10 02:09:31;;;;;;;72.53;22.23;;;13.70;99.90;;;;;;5118904;27;20581;-78
2023/05/10 02:12:02;;;;;;;77.60;23.37;;;13.70;99.90;;;;;;5117758;27;20223;-78
2023/05/10 02:14:31;;;;;;;80.73;22.73;;;13.70;99.90;;;;;;5123297;27;20844;-78
2023/05/10 02:17:01;;;;;;;73.23;20.70;;;13.70;99.90;;;;;;5118396;27;20290;-79
2023/05/10 02:19:29;;;;;;;70.10;22.03;;;13.70;99.90;;;;;;5119277;27;20228;-78
2023/05/10 02:21:58;;;;;;;77.87;22.83;;;13.80;99.90;;;;;;5116491;27;20235;-78
2023/05/10 02:24:26;;;;;;;76.57;23.13;;;13.70;99.90;;;;;;5120604;27;20212;-79
2023/05/10 02:26:55;;;;;;;77.07;23.43;;;13.70;99.90;;;;;;5120548;27;20346;-77
2023/05/10 02:29:24;;;;;;;78.77;21.87;;;13.70;99.90;;;;;;5119411;27;20307;-79
2023/05/10 02:31:53;;;;;;;83.67;22.63;;;13.70;99.90;;;;;;5116481;27;20257;-79
2023/05/10 02:34:25;;;;;;;83.57;24.30;;;13.70;99.90;;;;;;5113661;27;20203;-77
2023/05/10 02:36:53;;;;;;;87.87;22.47;;;13.70;99.90;;;;;;5117173;27;20328;-79
2023/05/10 02:39:22;;;;;;;88.77;23.67;;;13.70;99.90;;;;;;5117030;27;20297;-79
2023/05/10 02:41:50;;;;;;;93.47;23.37;;;13.80;99.90;;;;;;5116719;27;20275;-79
2023/05/10 02:44:19;;;;;;;91.57;23.63;;;13.80;99.90;;;;;;5120918;27;20301;-78
2023/05/10 02:46:46;;;;;;;96.77;24.27;;;13.80;99.90;;;;;;5122553;27;20303;-77
2023/05/10 02:49:15;;;;;;;94.50;24.83;;;13.80;99.90;;;;;;5117183;27;20289;-78
2023/05/10 02:51:47;;;;;;;102.87;26.50;;;13.80;99.90;;;;;;5110991;27;20297;-77
2023/05/10 02:54:27;;;;;;;97.97;24.57;;;13.90;99.90;;;;;;5117506;27;20666;-78
2023/05/10 02:56:57;;;;;;;111.03;25.57;;;13.80;99.90;;;;;;5116105;27;20560;-77
2023/05/10 02:59:24;;;;;;;88.37;23.87;;;13.80;99.90;;;;;;5116395;27;20219;-77
2023/05/10 03:01:50;;;;;;;103.80;26.60;;;13.80;99.90;;;;;;5122135;27;20670;-78
2023/05/10 03:04:17;;;;;;;108.17;27.97;;;13.80;99.90;;;;;;5094672;28;20195;-78
2023/05/10 03:06:45;;;;;;;113.50;27.03;;;13.80;99.90;;;;;;5123001;27;20207;-78
2023/05/10 03:09:15;;;;;;;112.10;27.67;;;13.80;99.90;;;;;;5116262;27;20234;-78
2023/05/10 03:11:54;;;;;;;115.10;29.23;;;13.80;99.90;;;;;;5118988;28;20747;-78
2023/05/10 03:14:33;;;;;;;109.87;27.43;;;13.80;99.90;;;;;;5113195;28;20226;-77
2023/05/10 03:17:08;;;;;;;124.07;27.90;;;13.80;99.90;;;;;;5118405;28;20199;-78
2023/05/10 03:19:54;;;;;;;111.10;27.70;;;13.80;99.90;;;;;;5119248;28;20536;-78
2023/05/10 03:22:30;;;;;;;125.63;28.40;;;13.80;99.90;;;;;;5117448;28;20218;-79
2023/05/10 03:25:00;;;;;;;125.67;31.00;;;13.80;99.90;;;;;;5112535;28;20308;-78
2023/05/10 03:27:27;;;;;;;125.63;28.63;;;13.80;99.90;;;;;;5118674;28;20285;-78
2023/05/10 03:29:55;;;;;;;110.93;28.20;;;13.80;99.90;;;;;;5116655;28;20284;-77
2023/05/10 03:32:23;;;;;;;108.17;26.70;;;13.90;99.90;;;;;;5117056;28;20233;-79
2023/05/10 03:34:50;;;;;;;120.33;28.33;;;13.80;99.90;;;;;;5117635;28;20264;-78
2023/05/10 03:37:16;;;;;;;120.37;29.80;;;13.90;99.90;;;;;;5117791;28;20286;-78
2023/05/10 03:39:43;;;;;;;117.43;29.73;;;13.90;99.90;;;;;;5118436;28;20289;-78
2023/05/10 03:42:12;;;;;;;113.00;29.23;;;13.90;99.90;;;;;;5114713;28;20238;-78
2023/05/10 03:44:39;;;;;;;123.10;29.20;;;13.90;99.90;;;;;;5120518;28;20636;-78
2023/05/10 03:47:06;;;;;;;107.77;27.73;;;13.90;99.90;;;;;;5111777;28;20224;-78
2023/05/10 03:49:33;;;;;;;108.47;26.27;;;14.00;99.90;;;;;;5117852;27;20650;-79
2023/05/10 03:52:00;;;;;;;111.43;28.20;;;13.90;99.90;;;;;;5098657;27;20238;-77
2023/05/10 03:54:27;;;;;;;102.00;28.27;;;13.90;99.90;;;;;;5121240;27;20604;-78
2023/05/10 03:56:53;;;;;;;109.83;29.23;;;13.90;99.90;;;;;;5125410;27;20205;-78
2023/05/10 03:59:20;;;;;;;123.97;31.60;;;13.90;99.90;;;;;;5119507;27;20332;-78
2023/05/10 04:01:47;;;;;;;105.97;28.37;;;13.90;99.90;;;;;;5120817;27;20256;-76
2023/05/10 04:04:14;;;;;;;114.60;30.20;;;13.90;99.90;;;;;;5102199;27;20202;-78
2023/05/10 04:06:41;;;;;;;113.70;28.90;;;13.80;99.90;;;;;;5119906;27;20240;-80
2023/05/10 04:09:08;;;;;;;111.60;27.93;;;13.80;99.90;;;;;;5117761;27;20230;-78
2023/05/10 04:11:35;;;;;;;92.03;26.07;;;13.80;99.90;;;;;;5099357;28;20240;-77
2023/05/10 04:14:02;;;;;;;94.03;26.83;;;13.90;99.90;;;;;;5109383;28;20630;-78
2023/05/10 04:16:29;;;;;;;98.27;27.60;;;13.90;99.90;;;;;;5103478;27;20304;-78
2023/05/10 04:18:56;;;;;;;96.97;26.00;;;13.80;99.90;;;;;;5121549;27;20211;-78
2023/05/10 04:21:22;;;;;;;88.30;26.83;;;13.90;99.90;;;;;;5103202;27;20230;-78
2023/05/10 04:23:49;;;;;;;89.50;26.20;;;13.90;99.90;;;;;;5119332;27;20190;-78
2023/05/10 04:26:16;;;;;;;100.10;25.63;;;13.90;99.90;;;;;;5118222;27;20232;-80
2023/05/10 04:28:43;;;;;;;89.00;25.40;;;13.90;99.90;;;;;;5122382;27;20198;-77
2023/05/10 04:31:10;;;;;;;86.87;25.50;;;13.90;99.90;;;;;;5118521;27;20301;-78
2023/05/10 04:33:37;;;;;;;79.47;23.97;;;13.90;99.90;;;;;;5120935;27;20223;-78
2023/05/10 04:36:04;;;;;;;93.87;24.40;;;13.90;99.90;;;;;;5117702;27;20217;-77
2023/05/10 04:38:30;;;;;;;93.30;26.73;;;13.90;99.90;;;;;;5117538;27;20206;-76
2023/05/10 04:41:06;;;;;;;87.00;25.93;;;13.90;99.90;;;;;;5099858;28;20234;-79
2023/05/10 04:43:32;;;;;;;86.47;25.77;;;13.80;99.90;;;;;;5117922;27;20281;-78
2023/05/10 04:45:59;;;;;;;93.93;25.47;;;13.90;99.90;;;;;;5122274;27;20302;-76
2023/05/10 04:48:27;;;;;;;91.37;26.77;;;13.90;99.90;;;;;;5102600;27;20242;-77
2023/05/10 04:50:54;;;;;;;99.90;28.23;;;13.80;99.90;;;;;;5118598;27;20286;-77
2023/05/10 04:53:21;;;;;;;97.03;26.30;;;13.80;99.90;;;;;;5099204;27;20262;-78
2023/05/10 04:55:48;;;;;;;94.87;24.30;;;13.80;99.90;;;;;;5089249;27;20195;-76
2023/05/10 04:58:15;;;;;;;91.23;26.93;;;13.80;99.90;;;;;;5119348;27;20293;-77
2023/05/10 05:00:42;;;;;;;102.40;25.73;;;13.80;99.90;;;;;;5119757;27;20211;-77
2023/05/10 05:03:09;;;;;;;94.90;26.30;;;13.70;99.90;;;;;;5114629;27;20282;-78
2023/05/10 05:05:36;;;;;;;102.60;25.90;;;13.70;99.90;;;;;;5116274;27;20286;-77
2023/05/10 05:08:03;;;;;;;89.50;23.57;;;13.70;99.90;;;;;;5115933;27;20751;-79
2023/05/10 05:10:31;;;;;;;98.37;25.13;;;13.70;99.90;;;;;;5128045;27;20639;-78
2023/05/10 05:12:57;;;;;;;112.33;27.30;;;13.70;99.90;;;;;;5120400;27;20242;-78
2023/05/10 05:15:24;;;;;;;97.87;26.40;;;13.70;99.90;;;;;;5107700;27;20214;-78
2023/05/10 05:17:51;;;;;;;100.40;25.57;;;13.70;99.90;;;;;;5121396;27;20717;-77
2023/05/10 05:20:18;;;;;;;104.23;25.23;;;13.70;99.90;;;;;;5122936;27;20569;-78
2023/05/10 05:22:45;;;;;;;103.80;24.73;;;13.70;99.90;;;;;;5122026;27;20690;-78
2023/05/10 05:25:13;;;;;;;97.43;24.73;;;13.70;99.90;;;;;;5104794;27;20195;-78
2023/05/10 05:27:40;;;;;;;108.03;24.87;;;13.70;99.90;;;;;;5115941;27;20273;-77
2023/05/10 05:30:07;;;;;;;105.00;24.70;;;13.70;99.90;;;;;;5116392;27;20261;-79
2023/05/10 05:32:34;;;;;;;107.27;24.47;;;13.60;99.90;;;;;;5097794;28;20790;-78
2023/05/10 05:35:01;;;;;;;109.20;25.47;;;13.60;99.90;;;;;;5101634;27;20207;-78
2023/05/10 05:37:27;;;;;;;103.20;24.03;;;13.60;99.90;;;;;;5111482;27;20206;-79
2023/05/10 05:39:54;;;;;;;102.33;24.50;;;13.60;99.90;;;;;;5116934;27;20203;-77
2023/05/10 05:42:21;;;;;;;108.67;23.70;;;13.70;99.90;;;;;;5122130;27;20199;-79
2023/05/10 05:44:48;;;;;;;108.83;25.33;;;13.80;99.90;;;;;;5113859;27;20301;-77
2023/05/10 05:47:15;;;;;;;103.97;24.77;;;13.80;99.90;;;;;;5116391;27;20198;-77
2023/05/10 05:49:41;;;;;;;93.40;22.47;;;13.80;99.90;;;;;;5118565;27;20203;-79
2023/05/10 05:52:08;;;;;;;107.00;23.60;;;13.80;99.90;;;;;;5116580;27;20319;-77
2023/05/10 05:54:35;;;;;;;111.60;25.63;;;13.90;99.90;;;;;;5115104;27;20637;-77
2023/05/10 05:57:02;;;;;;;112.00;24.47;;;13.80;99.90;;;;;;5116574;27;20195;-78
2023/05/10 05:59:29;;;;;;;112.13;25.80;;;13.80;99.90;;;;;;5116976;27;20384;-76
2023/05/10 06:01:56;;;;;;;113.67;24.30;;;13.80;99.90;;;;;;5115306;27;20569;-79
2023/05/10 06:04:22;;;;;;;115.77;27.67;;;13.90;99.90;;;;;;5098906;28;20678;-77
2023/05/10 06:06:49;;;;;;;115.47;25.27;;;13.90;99.90;;;;;;5102925;27;20637;-77
2023/05/10 06:09:16;;;;;;;108.03;24.07;;;14.00;99.90;;;;;;5114124;27;20305;-78
2023/05/10 06:11:43;;;;;;;111.87;25.33;;;14.00;99.90;;;;;;5111652;27;20195;-77
2023/05/10 06:14:10;;;;;;;107.17;23.27;;;14.00;99.90;;;;;;5115992;27;20322;-78
2023/05/10 06:16:36;;;;;;;100.73;23.70;;;14.00;99.90;;;;;;5117071;27;20235;-77
2023/05/10 06:19:04;;;;;;;100.70;23.53;;;14.00;99.90;;;;;;5118145;27;20210;-77
2023/05/10 06:21:30;;;;;;;99.90;24.20;;;14.00;99.90;;;;;;5115953;27;20289;-76
2023/05/10 06:23:57;;;;;;;95.87;23.83;;;14.00;99.90;;;;;;5119725;27;20282;-77
2023/05/10 06:26:24;;;;;;;114.27;24.77;;;13.90;99.90;;;;;;5115754;27;20207;-77
2023/05/10 06:28:51;;;;;;;114.17;25.17;;;13.90;99.90;;;;;;5118459;27;20209;-76
2023/05/10 06:31:18;;;;;;;107.70;26.13;;;13.90;99.90;;;;;;5115462;27;20234;-76
2023/05/10 06:33:45;;;;;;;104.13;24.60;;;13.90;99.90;;;;;;5119445;27;20226;-75
2023/05/10 06:36:11;;;;;;;109.53;23.07;;;13.90;99.90;;;;;;5115822;27;20646;-77
2023/05/10 06:38:38;;;;;;;104.97;25.63;;;14.00;99.90;;;;;;5112964;27;20211;-76
2023/05/10 06:41:05;;;;;;;112.53;25.00;;;13.90;99.90;;;;;;5118705;27;20198;-77
2023/05/10 06:43:32;;;;;;;114.70;24.40;;;14.00;99.90;;;;;;5118470;27;20609;-76
2023/05/10 06:45:58;;;;;;;101.87;24.03;;;14.10;99.90;;;;;;5118677;27;20286;-77
2023/05/10 06:48:25;;;;;;;88.10;21.27;;;14.20;99.90;;;;;;5116246;27;20199;-77
2023/05/10 06:50:52;;;;;;;74.73;20.27;;;14.30;99.90;;;;;;5116464;27;20593;-77
2023/05/10 06:53:19;;;;;;;81.80;22.53;;;14.30;99.90;;;;;;5116283;27;20261;-78
2023/05/10 06:55:46;;;;;;;83.13;22.43;;;14.20;99.90;;;;;;5114832;27;20230;-76
2023/05/10 06:58:12;;;;;;;92.97;23.77;;;14.30;99.90;;;;;;5116391;27;20673;-77
2023/05/10 07:00:40;;;;;;;89.87;22.93;;;14.20;99.90;;;;;;5115269;27;20225;-78
2023/05/10 07:03:07;;;;;;;86.93;24.90;;;14.10;99.90;;;;;;5118174;28;20238;-76
2023/05/10 07:05:34;;;;;;;85.93;23.67;;;14.10;99.90;;;;;;5114679;27;20207;-76
2023/05/10 07:08:01;;;;;;;80.90;23.07;;;14.10;99.90;;;;;;5114952;28;20227;-75
2023/05/10 07:10:28;;;;;;;90.73;24.57;;;14.10;99.90;;;;;;5114030;28;20217;-76
2023/05/10 07:12:55;;;;;;;70.90;22.17;;;14.10;99.90;;;;;;5115388;28;20218;-75
2023/05/10 07:15:22;;;;;;;78.33;24.13;;;14.10;99.90;;;;;;5119458;28;20254;-76
2023/05/10 07:17:49;;;;;;;79.10;23.07;;;14.10;99.90;;;;;;5115358;28;20586;-77
2023/05/10 07:20:16;;;;;;;78.47;23.40;;;14.10;99.90;;;;;;5118308;28;20229;-77
2023/05/10 07:22:43;;;;;;;72.13;21.57;;;14.10;99.90;;;;;;5118184;28;20199;-77
2023/05/10 07:25:10;;;;;;;79.57;22.37;;;14.10;99.90;;;;;;5119622;27;20244;-77
2023/05/10 07:27:37;;;;;;;63.70;21.53;;;14.10;99.90;;;;;;5123913;27;20211;-77
2023/05/10 07:30:04;;;;;;;72.73;22.03;;;14.20;99.90;;;;;;5120714;27;20254;-77
2023/05/10 07:32:31;;;;;;;63.23;21.80;;;14.20;99.90;;;;;;5118424;27;20203;-77
2023/05/10 07:34:58;;;;;;;67.10;22.83;;;14.30;99.90;;;;;;5104042;27;20251;-77
2023/05/10 07:37:24;;;;;;;67.50;21.10;;;14.40;99.90;;;;;;5099906;28;20759;-77
2023/05/10 07:39:51;;;;;;;65.63;21.07;;;14.40;99.90;;;;;;5118523;27;20202;-77
2023/05/10 07:42:18;;;;;;;64.03;20.73;;;14.40;99.90;;;;;;5118694;27;20199;-78
2023/05/10 07:44:45;;;;;;;49.93;18.17;;;14.40;99.90;;;;;;5121671;27;20652;-75
2023/05/10 07:47:11;;;;;;;60.03;20.03;;;14.50;99.90;;;;;;5120246;27;20278;-77
2023/05/10 07:49:38;;;;;;;57.07;19.77;;;14.60;99.90;;;;;;5127506;27;20682;-76
2023/05/10 07:52:05;;;;;;;51.90;19.23;;;14.70;99.90;;;;;;5121416;27;20572;-77
2023/05/10 07:54:32;;;;;;;49.45;18.85;;;14.80;99.90;;;;;;5120351;27;20230;-77
2023/05/10 07:57:00;;;;;;;47.03;17.70;;;14.90;99.90;;;;;;5122372;27;20209;-78
2023/05/10 07:59:26;;;;;;;52.33;17.88;;;14.90;99.90;;;;;;5120225;27;20233;-77
2023/05/10 08:01:53;;;;;;;42.38;15.93;;;15.10;99.90;;;;;;5101738;27;20290;-77
2023/05/10 08:04:20;;;;;;;40.80;16.30;;;15.20;99.90;;;;;;5119271;27;20527;-76
2023/05/10 08:06:47;;;;;;;41.88;17.02;;;15.30;99.90;;;;;;5121917;27;20188;-76
2023/05/10 08:09:14;;;;;;;37.58;14.68;;;15.40;99.90;;;;;;5111003;28;20280;-77
2023/05/10 08:11:40;;;;;;;36.17;15.10;;;15.30;99.90;;;;;;5104862;27;20197;-78
2023/05/10 08:14:07;;;;;;;34.50;14.48;;;15.40;99.90;;;;;;5119089;27;20327;-78
2023/05/10 08:16:34;;;;;;;33.42;14.88;;;15.50;99.90;;;;;;5121301;27;20735;-76
2023/05/10 08:19:01;;;;;;;34.63;14.93;;;15.50;99.90;;;;;;5117633;27;20297;-75
2023/05/10 08:21:28;;;;;;;29.08;13.55;;;15.60;99.90;;;;;;5123513;27;20222;-76
2023/05/10 08:23:55;;;;;;;33.90;14.55;;;15.60;99.90;;;;;;5104986;27;20206;-76
2023/05/10 08:26:21;;;;;;;31.25;13.52;;;15.60;99.90;;;;;;5136654;27;20294;-75
2023/05/10 08:28:48;;;;;;;30.77;13.73;;;15.70;99.90;;;;;;5121985;27;20290;-76
2023/05/10 08:31:15;;;;;;;33.00;12.35;;;15.70;99.90;;;;;;5118436;27;20214;-77
2023/05/10 08:33:42;;;;;;;22.98;11.52;;;15.70;99.90;;;;;;5102250;27;20263;-77
2023/05/10 08:36:10;;;;;;;25.55;12.20;;;15.70;99.90;;;;;;5117701;27;20207;-77
2023/05/10 08:38:37;;;;;;;24.83;11.90;;;15.70;99.90;;;;;;5100652;27;20210;-77
2023/05/10 08:41:05;;;;;;;24.77;11.85;;;15.80;99.90;;;;;;5121036;27;20502;-77
2023/05/10 08:43:32;;;;;;;24.95;10.65;;;15.90;99.90;;;;;;5118018;27;20203;-78
2023/05/10 08:46:05;;;;;;;24.25;10.35;;;16.00;99.90;;;;;;5121679;27;20268;-77
2023/05/10 08:48:34;;;;;;;21.80;10.65;;;16.20;99.90;;;;;;5118044;27;20248;-77
2023/05/10 08:51:03;;;;;;;18.25;9.82;;;16.10;99.90;;;;;;5122020;27;20629;-77
2023/05/10 08:53:32;;;;;;;20.67;10.05;;;16.10;99.90;;;;;;5117691;27;20250;-77
2023/05/10 08:56:00;;;;;;;20.42;9.27;;;16.10;99.90;;;;;;5129158;27;20227;-78
2023/05/10 08:58:27;;;;;;;24.52;10.02;;;16.10;99.90;;;;;;5118420;27;20211;-77
2023/05/10 09:00:55;;;;;;;19.23;9.50;;;16.10;99.90;;;;;;5120494;27;20309;-77
2023/05/10 09:03:22;;;;;;;19.55;9.80;;;16.00;99.90;;;;;;5117830;27;20572;-77
2023/05/10 09:05:49;;;;;;;24.33;9.65;;;16.00;99.90;;;;;;5122497;27;20205;-76
2023/05/10 09:08:17;;;;;;;21.80;10.10;;;15.90;99.90;;;;;;5098314;28;20219;-78
2023/05/10 09:10:47;;;;;;;23.33;10.52;;;15.90;99.90;;;;;;5120516;27;20233;-76
2023/05/10 09:13:15;;;;;;;21.48;9.98;;;15.80;99.90;;;;;;5117225;27;20199;-78
2023/05/10 09:15:43;;;;;;;22.95;9.40;;;15.90;99.90;;;;;;5120458;27;20313;-77
2023/05/10 09:18:09;;;;;;;22.60;8.98;;;15.80;99.90;;;;;;5118704;27;20186;-76
2023/05/10 09:20:36;;;;;;;23.27;9.70;;;15.90;99.90;;;;;;5118605;27;20713;-76
2023/05/10 09:23:03;;;;;;;17.30;9.10;;;15.90;99.90;;;;;;5118718;27;20215;-77
2023/05/10 09:25:30;;;;;;;21.08;9.45;;;16.00;99.90;;;;;;5118865;27;20210;-78
2023/05/10 09:27:57;;;;;;;21.55;9.10;;;16.00;99.90;;;;;;5117631;27;20203;-78
2023/05/10 09:30:26;;;;;;;17.73;8.80;;;16.00;99.90;;;;;;5119461;27;20223;-78
2023/05/10 09:32:54;;;;;;;21.23;9.35;;;16.00;99.90;;;;;;5116688;27;20556;-77
2023/05/10 09:35:23;;;;;;;18.73;8.57;;;15.90;99.90;;;;;;5118247;27;20690;-77
2023/05/10 09:37:54;;;;;;;18.05;9.38;;;15.80;99.90;;;;;;5120307;27;20207;-76
2023/05/10 09:40:22;;;;;;;20.33;9.55;;;15.70;99.90;;;;;;5112340;27;20687;-77
2023/05/10 09:43:05;;;;;;;17.48;8.68;;;15.70;99.90;;;;;;5120183;27;20281;-77
2023/05/10 09:45:34;;;;;;;21.08;9.48;;;15.70;99.90;;;;;;5116210;27;20226;-78
2023/05/10 09:48:04;;;;;;;21.05;9.73;;;15.70;99.90;;;;;;5112945;27;20296;-78
2023/05/10 09:50:31;;;;;;;17.60;9.07;;;15.70;99.90;;;;;;5119689;27;20202;-79
2023/05/10 09:53:00;;;;;;;21.55;9.77;;;15.70;99.90;;;;;;5116847;27;20213;-79
2023/05/10 09:55:41;;;;;;;19.98;10.00;;;15.80;99.90;;;;;;5117233;27;20309;-76
2023/05/10 09:58:11;;;;;;;17.25;8.82;;;15.80;99.90;;;;;;5113259;27;20298;-76
2023/05/10 10:00:43;;;;;;;21.98;9.05;;;15.90;99.90;;;;;;5118024;27;20300;-79
2023/05/10 10:03:18;;;;;;;22.13;9.88;;;15.90;99.90;;;;;;5129989;27;20196;-79
2023/05/10 10:05:47;;;;;;;19.23;9.52;;;15.80;99.90;;;;;;5119794;27;20271;-77
2023/05/10 10:08:15;;;;;;;16.52;8.30;;;15.90;99.90;;;;;;5094480;28;20220;-77
2023/05/10 10:10:43;;;;;;;19.27;9.57;;;16.00;99.90;;;;;;5094911;28;20298;-78
2023/05/10 10:13:12;;;;;;;13.70;6.95;;;16.20;99.90;;;;;;5095690;28;20200;-79
2023/05/10 10:15:39;;;;;;;18.08;7.70;;;16.30;99.90;;;;;;5096305;28;20212;-78
2023/05/10 10:18:07;;;;;;;15.00;8.13;;;16.40;99.90;;;;;;5097757;28;20211;-80
2023/05/10 10:20:37;;;;;;;12.35;6.75;;;16.60;99.90;;;;;;5095999;28;20225;-78
2023/05/10 10:23:04;;;;;;;15.90;7.38;;;16.80;99.90;;;;;;5099427;28;20619;-78
2023/05/10 10:25:31;;;;;;;10.82;6.32;;;16.90;99.90;;;;;;5095086;28;20563;-78
2023/05/10 10:28:23;;;;;;;11.25;5.85;;;17.00;99.90;;;;;;5098858;28;20641;-79
2023/05/10 10:30:55;;;;;;;12.40;5.43;;;17.10;99.90;;;;;;5097865;28;20226;-77
2023/05/10 10:33:36;;;;;;;10.85;5.40;;;17.10;99.90;;;;;;5095362;28;20667;-77
2023/05/10 10:36:03;;;;;;;9.20;4.78;;;17.10;99.90;;;;;;5098474;28;20595;-77
2023/05/10 10:39:00;;;;;;;9.88;5.07;;;16.90;99.90;;;;;;5098056;28;20298;-78
2023/05/10 10:41:36;;;;;;;11.38;4.93;;;16.70;99.90;;;;;;5103073;28;20300;-77
2023/05/10 10:44:22;;;;;;;8.05;4.60;;;16.60;99.90;;;;;;5099363;28;20290;-78
2023/05/10 10:47:35;;;;;;;9.75;4.72;;;16.60;99.90;;;;;;5092098;28;20628;-80
2023/05/10 10:50:00;;;;;;;9.85;4.43;;;16.70;99.90;;;;;;5094126;28;20218;-79
2023/05/10 10:52:29;;;;;;;7.35;4.10;;;16.80;99.90;;;;;;5097572;28;20211;-79
2023/05/10 10:55:14;;;;;;;9.73;5.60;;;16.90;99.90;;;;;;5092435;28;20675;-77
2023/05/10 10:57:41;;;;;;;8.88;4.95;;;17.10;99.90;;;;;;5093818;28;20286;-77
2023/05/10 11:00:26;;;;;;;10.30;5.10;;;17.10;99.90;;;;;;5094370;28;20211;-80
2023/05/10 11:02:54;;;;;;;10.60;5.50;;;17.10;99.90;;;;;;5095124;28;20218;-79
2023/05/10 11:05:37;;;;;;;9.68;5.40;;;17.00;99.90;;;;;;5095199;28;20231;-80
2023/05/10 11:08:13;;;;;;;9.13;4.95;;;17.00;99.90;;;;;;5092614;28;20214;-80
2023/05/10 11:11:03;;;;;;;8.93;5.03;;;17.10;99.90;;;;;;5118856;27;20308;-79
2023/05/10 11:13:32;;;;;;;8.00;4.22;;;17.20;99.90;;;;;;5116745;27;20241;-79
2023/05/10 11:16:12;;;;;;;6.70;4.22;;;17.40;99.90;;;;;;5118351;28;20234;-81
2023/05/10 11:18:39;;;;;;;6.80;4.00;;;17.40;99.90;;;;;;5114569;27;20202;-80
2023/05/10 11:21:13;;;;;;;6.18;3.60;;;17.40;99.90;;;;;;5115328;28;20681;-79
2023/05/10 11:23:39;;;;;;;7.03;4.30;;;17.50;99.90;;;;;;5133853;27;20234;-79
2023/05/10 11:26:10;;;;;;;7.95;3.88;;;17.60;99.90;;;;;;5114526;28;20210;-78
2023/05/10 11:28:45;;;;;;;6.18;3.58;;;17.70;99.90;;;;;;5119352;28;20232;-80
2023/05/10 11:31:15;;;;;;;5.07;3.22;;;17.90;99.90;;;;;;5113660;28;20206;-79
2023/05/10 11:33:43;;;;;;;7.68;3.45;;;17.90;99.90;;;;;;5115581;28;20207;-79
2023/05/10 11:36:37;;;;;;;5.60;3.00;;;18.10;99.90;;;;;;5117856;28;20209;-79
2023/05/10 11:39:05;;;;;;;4.57;2.85;;;18.40;99.90;;;;;;5114556;28;20339;-78
2023/05/10 11:41:31;;;;;;;6.05;3.70;;;18.60;99.90;;;;;;5116064;28;20215;-79
2023/05/10 11:43:58;;;;;;;6.47;3.35;;;18.70;99.90;;;;;;5116544;28;20206;-79
2023/05/10 11:46:26;;;;;;;4.70;3.33;;;18.90;99.90;;;;;;5100007;28;20707;-79
2023/05/10 11:49:01;;;;;;;5.63;3.45;;;19.10;99.90;;;;;;5096757;28;20272;-80
2023/05/10 11:51:28;;;;;;;4.60;3.20;;;19.40;99.90;;;;;;5115050;28;20292;-80
2023/05/10 11:53:56;;;;;;;4.45;3.20;;;19.50;99.90;;;;;;5095851;28;20210;-81
2023/05/10 11:56:24;;;;;;;5.38;3.08;;;19.70;99.90;;;;;;5117833;28;20261;-80
2023/05/10 11:58:56;;;;;;;5.70;3.13;;;19.60;99.90;;;;;;5116665;28;20286;-80
2023/05/10 12:01:24;;;;;;;6.13;3.80;;;19.60;99.90;;;;;;5117546;28;20218;-80
2023/05/10 12:03:53;;;;;;;5.85;2.90;;;19.60;99.90;;;;;;5114355;28;20541;-79
2023/05/10 12:06:21;;;;;;;7.50;3.42;;;19.50;99.90;;;;;;5107871;28;20355;-80
2023/05/10 12:08:52;;;;;;;4.45;3.22;;;19.20;99.90;;;;;;5090075;28;20222;-79
2023/05/10 12:11:21;;;;;;;6.60;3.40;;;19.10;99.90;;;;;;5091731;27;20257;-79
2023/05/10 12:13:49;;;;;;;6.55;2.60;;;19.10;99.90;;;;;;5116286;27;20191;-80
2023/05/10 12:16:20;;;;;;;5.07;2.85;;;19.20;99.90;;;;;;5118643;27;20202;-78
2023/05/10 12:18:52;;;;;;;6.18;3.00;;;19.20;99.90;;;;;;5088980;27;20350;-80
2023/05/10 12:21:22;;;;;;;4.25;3.03;;;19.30;99.90;;;;;;5113014;27;20203;-79
2023/05/10 12:23:54;;;;;;;6.63;3.22;;;19.30;99.90;;;;;;5121747;27;20221;-80
2023/05/10 12:26:26;;;;;;;4.72;2.85;;;19.20;99.90;;;;;;5113575;27;20696;-79
2023/05/10 12:29:11;;;;;;;6.55;3.20;;;19.10;99.90;;;;;;5120929;27;20574;-80
2023/05/10 12:31:58;;;;;;;6.07;2.97;;;19.00;99.90;;;;;;5117782;27;20197;-78
2023/05/10 12:34:33;;;;;;;7.15;3.33;;;18.90;99.90;;;;;;5131437;27;20231;-80
2023/05/10 12:37:01;;;;;;;5.45;3.22;;;18.80;99.90;;;;;;5104143;27;20230;-80
2023/05/10 12:39:44;;;;;;;7.07;3.80;;;18.60;99.90;;;;;;5100693;27;20285;-79
2023/05/10 12:42:11;;;;;;;5.50;3.90;;;18.40;99.90;;;;;;5099130;27;20195;-79
2023/05/10 12:44:39;;;;;;;6.47;4.15;;;18.10;99.90;;;;;;5118692;27;20263;-81